sensor_id;sensor_type;location;lat;lon;timestamp;P1;durP1;ratioP1;P2;durP2;ratioP2
71046;SDS011;58703;48.978;8.982;2023-04-24T00:01:19;1.33;;;0.30;;
71046;SDS011;58703;48.978;8.982;2023-04-24T00:03:45;0.35;;;0.35;;
71046;SDS011;58703;48.978;8.982;2023-04-24T00:06:11;0.37;;;0.37;;
71046;SDS011;58703;48.978;8.982;2023-04-24T00:08:36;1.52;;;0.40;;
71046;SDS011;58703;48.978;8.982;2023-04-24T00:11:02;0.40;;;0.37;;
71046;SDS011;58703;48.978;8.982;2023-04-24T00:13:29;0.40;;;0.30;;
71046;SDS011;58703;48.978;8.982;2023-04-24T00:15:55;1.00;;;0.30;;
71046;SDS011;58703;48.978;8.982;2023-04-24T00:18:22;0.57;;;0.57;;
71046;SDS011;58703;48.978;8.982;2023-04-24T00:20:48;0.85;;;0.32;;
71046;SDS011;58703;48.978;8.982;2023-04-24T00:23:14;0.65;;;0.32;;
71046;SDS011;58703;48.978;8.982;2023-04-24T00:25:40;2.43;;;0.40;;
71046;SDS011;58703;48.978;8.982;2023-04-24T00:28:05;0.90;;;0.60;;
71046;SDS011;58703;48.978;8.982;2023-04-24T00:30:31;1.33;;;0.50;;
71046;SDS011;58703;48.978;8.982;2023-04-24T00:32:58;0.23;;;0.23;;
71046;SDS011;58703;48.978;8.982;2023-04-24T00:35:24;1.35;;;0.40;;
71046;SDS011;58703;48.978;8.982;2023-04-24T00:37:50;1.00;;;0.40;;
71046;SDS011;58703;48.978;8.982;2023-04-24T00:40:17;2.13;;;0.33;;
71046;SDS011;58703;48.978;8.982;2023-04-24T00:42:44;0.57;;;0.30;;
71046;SDS011;58703;48.978;8.982;2023-04-24T00:45:10;1.42;;;0.30;;
71046;SDS011;58703;48.978;8.982;2023-04-24T00:47:38;1.00;;;0.40;;
71046;SDS011;58703;48.978;8.982;2023-04-24T00:50:05;1.00;;;0.35;;
71046;SDS011;58703;48.978;8.982;2023-04-24T00:52:33;1.50;;;0.60;;
71046;SDS011;58703;48.978;8.982;2023-04-24T00:54:59;3.20;;;0.65;;
71046;SDS011;58703;48.978;8.982;2023-04-24T00:57:25;0.20;;;0.20;;
71046;SDS011;58703;48.978;8.982;2023-04-24T00:59:51;0.20;;;0.20;;
71046;SDS011;58703;48.978;8.982;2023-04-24T01:02:18;1.30;;;0.50;;
71046;SDS011;58703;48.978;8.982;2023-04-24T01:04:46;1.07;;;0.40;;
71046;SDS011;58703;48.978;8.982;2023-04-24T01:07:11;1.83;;;0.47;;
71046;SDS011;58703;48.978;8.982;2023-04-24T01:09:38;0.52;;;0.40;;
71046;SDS011;58703;48.978;8.982;2023-04-24T01:12:06;1.43;;;0.33;;
71046;SDS011;58703;48.978;8.982;2023-04-24T01:14:32;0.32;;;0.20;;
71046;SDS011;58703;48.978;8.982;2023-04-24T01:16:58;0.50;;;0.50;;
71046;SDS011;58703;48.978;8.982;2023-04-24T01:19:25;2.23;;;0.40;;
71046;SDS011;58703;48.978;8.982;2023-04-24T01:21:51;0.32;;;0.20;;
71046;SDS011;58703;48.978;8.982;2023-04-24T01:24:19;2.67;;;0.40;;
71046;SDS011;58703;48.978;8.982;2023-04-24T01:26:45;0.67;;;0.50;;
71046;SDS011;58703;48.978;8.982;2023-04-24T01:29:11;2.85;;;0.55;;
71046;SDS011;58703;48.978;8.982;2023-04-24T01:31:38;1.80;;;0.57;;
71046;SDS011;58703;48.978;8.982;2023-04-24T01:34:04;1.42;;;0.63;;
71046;SDS011;58703;48.978;8.982;2023-04-24T01:36:32;1.73;;;0.30;;
71046;SDS011;58703;48.978;8.982;2023-04-24T01:38:58;0.55;;;0.32;;
71046;SDS011;58703;48.978;8.982;2023-04-24T01:41:23;1.20;;;0.30;;
71046;SDS011;58703;48.978;8.982;2023-04-24T01:43:50;1.80;;;0.30;;
71046;SDS011;58703;48.978;8.982;2023-04-24T01:46:16;1.10;;;0.15;;
71046;SDS011;58703;48.978;8.982;2023-04-24T01:48:41;1.07;;;0.30;;
71046;SDS011;58703;48.978;8.982;2023-04-24T01:51:08;0.98;;;0.68;;
71046;SDS011;58703;48.978;8.982;2023-04-24T01:53:34;0.30;;;0.30;;
71046;SDS011;58703;48.978;8.982;2023-04-24T01:55:59;0.40;;;0.20;;
71046;SDS011;58703;48.978;8.982;2023-04-24T01:58:26;2.60;;;0.38;;
71046;SDS011;58703;48.978;8.982;2023-04-24T02:00:52;0.40;;;0.20;;
71046;SDS011;58703;48.978;8.982;2023-04-24T02:03:17;1.00;;;0.30;;
71046;SDS011;58703;48.978;8.982;2023-04-24T02:05:43;1.37;;;0.43;;
71046;SDS011;58703;48.978;8.982;2023-04-24T02:08:11;0.93;;;0.47;;
71046;SDS011;58703;48.978;8.982;2023-04-24T02:10:37;1.38;;;0.70;;
71046;SDS011;58703;48.978;8.982;2023-04-24T02:13:03;0.63;;;0.47;;
71046;SDS011;58703;48.978;8.982;2023-04-24T02:15:29;0.73;;;0.40;;
71046;SDS011;58703;48.978;8.982;2023-04-24T02:17:55;0.30;;;0.30;;
71046;SDS011;58703;48.978;8.982;2023-04-24T02:20:21;1.30;;;0.35;;
71046;SDS011;58703;48.978;8.982;2023-04-24T02:22:47;1.80;;;0.20;;
71046;SDS011;58703;48.978;8.982;2023-04-24T02:25:13;0.50;;;0.30;;
71046;SDS011;58703;48.978;8.982;2023-04-24T02:27:38;3.07;;;0.33;;
71046;SDS011;58703;48.978;8.982;2023-04-24T02:30:04;0.73;;;0.30;;
71046;SDS011;58703;48.978;8.982;2023-04-24T02:32:31;3.20;;;0.50;;
71046;SDS011;58703;48.978;8.982;2023-04-24T02:34:56;0.80;;;0.60;;
71046;SDS011;58703;48.978;8.982;2023-04-24T02:37:22;0.97;;;0.20;;
71046;SDS011;58703;48.978;8.982;2023-04-24T02:39:49;2.10;;;0.50;;
71046;SDS011;58703;48.978;8.982;2023-04-24T02:42:14;1.08;;;0.20;;
71046;SDS011;58703;48.978;8.982;2023-04-24T02:44:42;1.50;;;0.50;;
71046;SDS011;58703;48.978;8.982;2023-04-24T02:47:07;1.15;;;0.30;;
71046;SDS011;58703;48.978;8.982;2023-04-24T02:49:35;1.40;;;1.03;;
71046;SDS011;58703;48.978;8.982;2023-04-24T02:52:01;1.55;;;0.47;;
71046;SDS011;58703;48.978;8.982;2023-04-24T02:54:27;1.13;;;0.30;;
71046;SDS011;58703;48.978;8.982;2023-04-24T02:56:54;0.57;;;0.20;;
71046;SDS011;58703;48.978;8.982;2023-04-24T02:59:21;2.08;;;0.40;;
71046;SDS011;58703;48.978;8.982;2023-04-24T03:01:47;1.95;;;0.65;;
71046;SDS011;58703;48.978;8.982;2023-04-24T03:04:13;1.10;;;0.43;;
71046;SDS011;58703;48.978;8.982;2023-04-24T03:06:39;2.17;;;0.30;;
71046;SDS011;58703;48.978;8.982;2023-04-24T03:09:04;1.33;;;0.23;;
71046;SDS011;58703;48.978;8.982;2023-04-24T03:11:31;3.15;;;0.10;;
71046;SDS011;58703;48.978;8.982;2023-04-24T03:13:56;1.70;;;0.30;;
71046;SDS011;58703;48.978;8.982;2023-04-24T03:16:23;2.25;;;0.70;;
71046;SDS011;58703;48.978;8.982;2023-04-24T03:18:49;1.30;;;0.30;;
71046;SDS011;58703;48.978;8.982;2023-04-24T03:21:15;0.50;;;0.38;;
71046;SDS011;58703;48.978;8.982;2023-04-24T03:23:41;1.13;;;0.68;;
71046;SDS011;58703;48.978;8.982;2023-04-24T03:26:06;1.77;;;0.70;;
71046;SDS011;58703;48.978;8.982;2023-04-24T03:28:33;1.10;;;0.40;;
71046;SDS011;58703;48.978;8.982;2023-04-24T03:30:58;1.38;;;0.45;;
71046;SDS011;58703;48.978;8.982;2023-04-24T03:33:25;0.60;;;0.60;;
71046;SDS011;58703;48.978;8.982;2023-04-24T03:35:50;2.23;;;0.60;;
71046;SDS011;58703;48.978;8.982;2023-04-24T03:38:17;1.60;;;0.53;;
71046;SDS011;58703;48.978;8.982;2023-04-24T03:40:44;1.30;;;0.30;;
71046;SDS011;58703;48.978;8.982;2023-04-24T03:43:09;1.52;;;0.22;;
71046;SDS011;58703;48.978;8.982;2023-04-24T03:45:36;0.57;;;0.30;;
71046;SDS011;58703;48.978;8.982;2023-04-24T03:48:03;1.02;;;0.60;;
71046;SDS011;58703;48.978;8.982;2023-04-24T03:50:30;3.33;;;0.45;;
71046;SDS011;58703;48.978;8.982;2023-04-24T03:52:57;2.15;;;0.50;;
71046;SDS011;58703;48.978;8.982;2023-04-24T03:55:24;1.30;;;0.50;;
71046;SDS011;58703;48.978;8.982;2023-04-24T03:57:51;0.50;;;0.20;;
71046;SDS011;58703;48.978;8.982;2023-04-24T04:00:16;2.10;;;0.88;;
71046;SDS011;58703;48.978;8.982;2023-04-24T04:02:43;0.80;;;0.20;;
71046;SDS011;58703;48.978;8.982;2023-04-24T04:05:10;0.57;;;0.40;;
71046;SDS011;58703;48.978;8.982;2023-04-24T04:07:36;2.17;;;0.60;;
71046;SDS011;58703;48.978;8.982;2023-04-24T04:10:02;5.85;;;0.50;;
71046;SDS011;58703;48.978;8.982;2023-04-24T04:12:29;0.70;;;0.47;;
71046;SDS011;58703;48.978;8.982;2023-04-24T04:14:56;1.20;;;0.33;;
71046;SDS011;58703;48.978;8.982;2023-04-24T04:17:23;3.28;;;0.73;;
71046;SDS011;58703;48.978;8.982;2023-04-24T04:19:49;1.05;;;0.60;;
71046;SDS011;58703;48.978;8.982;2023-04-24T04:22:15;1.33;;;1.17;;
71046;SDS011;58703;48.978;8.982;2023-04-24T04:24:42;1.43;;;0.80;;
71046;SDS011;58703;48.978;8.982;2023-04-24T04:27:08;1.70;;;0.95;;
71046;SDS011;58703;48.978;8.982;2023-04-24T04:29:34;2.17;;;0.80;;
71046;SDS011;58703;48.978;8.982;2023-04-24T04:32:02;2.97;;;1.25;;
71046;SDS011;58703;48.978;8.982;2023-04-24T04:34:29;0.93;;;0.73;;
71046;SDS011;58703;48.978;8.982;2023-04-24T04:36:56;1.05;;;0.90;;
71046;SDS011;58703;48.978;8.982;2023-04-24T04:39:26;2.05;;;1.00;;
71046;SDS011;58703;48.978;8.982;2023-04-24T04:41:55;0.50;;;0.50;;
71046;SDS011;58703;48.978;8.982;2023-04-24T04:44:21;1.05;;;0.77;;
71046;SDS011;58703;48.978;8.982;2023-04-24T04:46:48;1.57;;;1.00;;
71046;SDS011;58703;48.978;8.982;2023-04-24T04:49:15;1.17;;;1.02;;
71046;SDS011;58703;48.978;8.982;2023-04-24T04:51:43;2.67;;;0.75;;
71046;SDS011;58703;48.978;8.982;2023-04-24T04:54:10;1.08;;;0.80;;
71046;SDS011;58703;48.978;8.982;2023-04-24T04:56:36;2.40;;;0.80;;
71046;SDS011;58703;48.978;8.982;2023-04-24T04:59:04;1.97;;;1.00;;
71046;SDS011;58703;48.978;8.982;2023-04-24T05:01:33;0.80;;;0.80;;
71046;SDS011;58703;48.978;8.982;2023-04-24T05:03:59;2.78;;;1.02;;
71046;SDS011;58703;48.978;8.982;2023-04-24T05:06:25;1.92;;;1.15;;
71046;SDS011;58703;48.978;8.982;2023-04-24T05:08:52;1.50;;;1.40;;
71046;SDS011;58703;48.978;8.982;2023-04-24T05:11:23;1.07;;;0.97;;
71046;SDS011;58703;48.978;8.982;2023-04-24T05:13:49;1.20;;;0.98;;
71046;SDS011;58703;48.978;8.982;2023-04-24T05:16:16;1.30;;;1.07;;
71046;SDS011;58703;48.978;8.982;2023-04-24T05:18:42;0.80;;;0.80;;
71046;SDS011;58703;48.978;8.982;2023-04-24T05:21:09;2.25;;;1.00;;
71046;SDS011;58703;48.978;8.982;2023-04-24T05:23:35;1.45;;;1.08;;
71046;SDS011;58703;48.978;8.982;2023-04-24T05:26:00;1.20;;;1.10;;
71046;SDS011;58703;48.978;8.982;2023-04-24T05:28:28;1.92;;;1.70;;
71046;SDS011;58703;48.978;8.982;2023-04-24T05:30:54;1.40;;;1.23;;
71046;SDS011;58703;48.978;8.982;2023-04-24T05:33:21;2.70;;;1.45;;
71046;SDS011;58703;48.978;8.982;2023-04-24T05:35:48;1.67;;;1.40;;
71046;SDS011;58703;48.978;8.982;2023-04-24T05:38:15;1.92;;;1.33;;
71046;SDS011;58703;48.978;8.982;2023-04-24T05:40:44;2.92;;;1.60;;
71046;SDS011;58703;48.978;8.982;2023-04-24T05:43:13;2.00;;;1.80;;
71046;SDS011;58703;48.978;8.982;2023-04-24T05:45:38;2.17;;;1.83;;
71046;SDS011;58703;48.978;8.982;2023-04-24T05:48:04;1.80;;;1.52;;
71046;SDS011;58703;48.978;8.982;2023-04-24T05:50:32;3.17;;;1.50;;
71046;SDS011;58703;48.978;8.982;2023-04-24T05:52:58;1.97;;;1.60;;
71046;SDS011;58703;48.978;8.982;2023-04-24T05:55:25;3.40;;;1.58;;
71046;SDS011;58703;48.978;8.982;2023-04-24T05:57:51;1.80;;;1.70;;
71046;SDS011;58703;48.978;8.982;2023-04-24T06:00:17;4.40;;;1.73;;
71046;SDS011;58703;48.978;8.982;2023-04-24T06:02:45;3.40;;;1.50;;
71046;SDS011;58703;48.978;8.982;2023-04-24T06:05:11;2.72;;;2.00;;
71046;SDS011;58703;48.978;8.982;2023-04-24T06:07:38;2.53;;;1.75;;
71046;SDS011;58703;48.978;8.982;2023-04-24T06:10:05;3.63;;;1.40;;
71046;SDS011;58703;48.978;8.982;2023-04-24T06:12:30;2.58;;;1.38;;
71046;SDS011;58703;48.978;8.982;2023-04-24T06:14:56;4.68;;;2.00;;
71046;SDS011;58703;48.978;8.982;2023-04-24T06:17:21;2.60;;;1.73;;
71046;SDS011;58703;48.978;8.982;2023-04-24T06:19:47;2.07;;;1.87;;
71046;SDS011;58703;48.978;8.982;2023-04-24T06:22:14;2.90;;;1.70;;
71046;SDS011;58703;48.978;8.982;2023-04-24T06:24:39;1.88;;;1.60;;
71046;SDS011;58703;48.978;8.982;2023-04-24T06:27:05;2.10;;;1.90;;
71046;SDS011;58703;48.978;8.982;2023-04-24T06:29:31;2.20;;;2.07;;
71046;SDS011;58703;48.978;8.982;2023-04-24T06:31:57;1.70;;;1.60;;
71046;SDS011;58703;48.978;8.982;2023-04-24T06:34:23;1.47;;;1.33;;
71046;SDS011;58703;48.978;8.982;2023-04-24T06:36:48;1.73;;;1.60;;
71046;SDS011;58703;48.978;8.982;2023-04-24T06:39:15;1.40;;;1.30;;
71046;SDS011;58703;48.978;8.982;2023-04-24T06:41:42;2.90;;;1.60;;
71046;SDS011;58703;48.978;8.982;2023-04-24T06:44:08;2.30;;;0.98;;
71046;SDS011;58703;48.978;8.982;2023-04-24T06:46:33;3.13;;;1.73;;
71046;SDS011;58703;48.978;8.982;2023-04-24T06:49:00;2.80;;;1.77;;
71046;SDS011;58703;48.978;8.982;2023-04-24T06:51:26;1.60;;;1.50;;
71046;SDS011;58703;48.978;8.982;2023-04-24T06:53:53;2.35;;;1.40;;
71046;SDS011;58703;48.978;8.982;2023-04-24T06:56:19;2.13;;;1.60;;
71046;SDS011;58703;48.978;8.982;2023-04-24T06:58:45;2.35;;;1.70;;
71046;SDS011;58703;48.978;8.982;2023-04-24T07:01:11;2.43;;;1.50;;
71046;SDS011;58703;48.978;8.982;2023-04-24T07:03:38;2.53;;;1.67;;
71046;SDS011;58703;48.978;8.982;2023-04-24T07:06:05;1.70;;;1.40;;
71046;SDS011;58703;48.978;8.982;2023-04-24T07:08:32;2.17;;;1.90;;
71046;SDS011;58703;48.978;8.982;2023-04-24T07:10:59;2.17;;;1.50;;
71046;SDS011;58703;48.978;8.982;2023-04-24T07:13:26;2.83;;;1.38;;
71046;SDS011;58703;48.978;8.982;2023-04-24T07:15:53;1.92;;;1.60;;
71046;SDS011;58703;48.978;8.982;2023-04-24T07:18:21;3.28;;;1.17;;
71046;SDS011;58703;48.978;8.982;2023-04-24T07:20:48;1.08;;;1.05;;
71046;SDS011;58703;48.978;8.982;2023-04-24T07:23:19;1.83;;;1.07;;
71046;SDS011;58703;48.978;8.982;2023-04-24T07:25:46;2.97;;;1.23;;
71046;SDS011;58703;48.978;8.982;2023-04-24T07:28:13;4.75;;;1.70;;
71046;SDS011;58703;48.978;8.982;2023-04-24T07:30:38;2.42;;;1.42;;
71046;SDS011;58703;48.978;8.982;2023-04-24T07:33:04;3.63;;;1.63;;
71046;SDS011;58703;48.978;8.982;2023-04-24T07:35:31;1.85;;;1.42;;
71046;SDS011;58703;48.978;8.982;2023-04-24T07:38:00;0.90;;;0.80;;
71046;SDS011;58703;48.978;8.982;2023-04-24T07:40:27;1.02;;;0.88;;
71046;SDS011;58703;48.978;8.982;2023-04-24T07:42:55;1.48;;;1.20;;
71046;SDS011;58703;48.978;8.982;2023-04-24T07:45:22;2.05;;;1.08;;
71046;SDS011;58703;48.978;8.982;2023-04-24T07:47:49;1.65;;;1.10;;
71046;SDS011;58703;48.978;8.982;2023-04-24T07:50:17;1.53;;;0.83;;
71046;SDS011;58703;48.978;8.982;2023-04-24T07:52:42;2.03;;;1.10;;
71046;SDS011;58703;48.978;8.982;2023-04-24T07:55:08;2.20;;;1.00;;
71046;SDS011;58703;48.978;8.982;2023-04-24T07:57:35;2.58;;;1.30;;
71046;SDS011;58703;48.978;8.982;2023-04-24T08:00:02;2.20;;;1.00;;
71046;SDS011;58703;48.978;8.982;2023-04-24T08:02:28;1.65;;;0.90;;
71046;SDS011;58703;48.978;8.982;2023-04-24T08:04:54;2.33;;;0.80;;
71046;SDS011;58703;48.978;8.982;2023-04-24T08:07:20;1.00;;;0.90;;
71046;SDS011;58703;48.978;8.982;2023-04-24T08:09:45;2.05;;;1.00;;
71046;SDS011;58703;48.978;8.982;2023-04-24T08:12:11;1.13;;;1.03;;
71046;SDS011;58703;48.978;8.982;2023-04-24T08:14:38;0.98;;;0.57;;
71046;SDS011;58703;48.978;8.982;2023-04-24T08:17:04;0.82;;;0.70;;
71046;SDS011;58703;48.978;8.982;2023-04-24T08:19:30;1.10;;;0.90;;
71046;SDS011;58703;48.978;8.982;2023-04-24T08:21:57;1.38;;;0.80;;
71046;SDS011;58703;48.978;8.982;2023-04-24T08:24:22;1.20;;;1.07;;
71046;SDS011;58703;48.978;8.982;2023-04-24T08:26:49;3.33;;;1.00;;
71046;SDS011;58703;48.978;8.982;2023-04-24T08:29:17;1.40;;;0.63;;
71046;SDS011;58703;48.978;8.982;2023-04-24T08:31:43;1.30;;;0.88;;
71046;SDS011;58703;48.978;8.982;2023-04-24T08:34:09;1.03;;;0.80;;
71046;SDS011;58703;48.978;8.982;2023-04-24T08:36:35;2.00;;;0.60;;
71046;SDS011;58703;48.978;8.982;2023-04-24T08:39:02;0.88;;;0.88;;
71046;SDS011;58703;48.978;8.982;2023-04-24T08:41:27;1.23;;;0.53;;
71046;SDS011;58703;48.978;8.982;2023-04-24T08:43:53;1.05;;;0.50;;
71046;SDS011;58703;48.978;8.982;2023-04-24T08:46:21;1.80;;;0.93;;
71046;SDS011;58703;48.978;8.982;2023-04-24T08:48:49;1.40;;;0.75;;
71046;SDS011;58703;48.978;8.982;2023-04-24T08:51:17;0.93;;;0.52;;
71046;SDS011;58703;48.978;8.982;2023-04-24T08:53:45;0.60;;;0.60;;
71046;SDS011;58703;48.978;8.982;2023-04-24T08:56:11;1.50;;;0.63;;
71046;SDS011;58703;48.978;8.982;2023-04-24T08:58:39;0.90;;;0.50;;
71046;SDS011;58703;48.978;8.982;2023-04-24T09:01:07;2.15;;;0.50;;
71046;SDS011;58703;48.978;8.982;2023-04-24T09:03:34;1.85;;;0.75;;
71046;SDS011;58703;48.978;8.982;2023-04-24T09:06:00;2.15;;;0.82;;
71046;SDS011;58703;48.978;8.982;2023-04-24T09:08:28;2.15;;;0.93;;
71046;SDS011;58703;48.978;8.982;2023-04-24T09:10:56;1.13;;;0.90;;
71046;SDS011;58703;48.978;8.982;2023-04-24T09:13:23;1.23;;;0.90;;
71046;SDS011;58703;48.978;8.982;2023-04-24T09:15:50;1.77;;;1.38;;
71046;SDS011;58703;48.978;8.982;2023-04-24T09:18:17;2.58;;;1.05;;
71046;SDS011;58703;48.978;8.982;2023-04-24T09:20:57;1.23;;;1.13;;
71046;SDS011;58703;48.978;8.982;2023-04-24T09:23:27;1.47;;;0.97;;
71046;SDS011;58703;48.978;8.982;2023-04-24T09:25:55;3.65;;;1.48;;
71046;SDS011;58703;48.978;8.982;2023-04-24T09:28:25;3.03;;;1.23;;
71046;SDS011;58703;48.978;8.982;2023-04-24T09:31:04;1.77;;;0.73;;
71046;SDS011;58703;48.978;8.982;2023-04-24T09:33:32;1.33;;;1.08;;
71046;SDS011;58703;48.978;8.982;2023-04-24T09:35:58;2.70;;;1.77;;
71046;SDS011;58703;48.978;8.982;2023-04-24T09:38:33;1.02;;;0.93;;
71046;SDS011;58703;48.978;8.982;2023-04-24T09:41:01;2.92;;;0.85;;
71046;SDS011;58703;48.978;8.982;2023-04-24T09:43:33;1.67;;;0.60;;
71046;SDS011;58703;48.978;8.982;2023-04-24T09:46:04;2.03;;;0.75;;
71046;SDS011;58703;48.978;8.982;2023-04-24T09:48:33;1.63;;;0.83;;
71046;SDS011;58703;48.978;8.982;2023-04-24T09:51:01;0.80;;;0.50;;
71046;SDS011;58703;48.978;8.982;2023-04-24T09:53:30;2.22;;;0.80;;
71046;SDS011;58703;48.978;8.982;2023-04-24T09:55:56;0.90;;;0.80;;
71046;SDS011;58703;48.978;8.982;2023-04-24T09:58:29;0.95;;;0.80;;
71046;SDS011;58703;48.978;8.982;2023-04-24T10:00:56;2.27;;;0.87;;
71046;SDS011;58703;48.978;8.982;2023-04-24T10:03:26;6.25;;;1.17;;
71046;SDS011;58703;48.978;8.982;2023-04-24T10:06:00;1.63;;;0.95;;
71046;SDS011;58703;48.978;8.982;2023-04-24T10:08:35;3.80;;;1.00;;
71046;SDS011;58703;48.978;8.982;2023-04-24T10:11:04;1.77;;;1.20;;
71046;SDS011;58703;48.978;8.982;2023-04-24T10:13:31;2.60;;;0.87;;
71046;SDS011;58703;48.978;8.982;2023-04-24T10:15:59;0.73;;;0.40;;
71046;SDS011;58703;48.978;8.982;2023-04-24T10:18:27;3.10;;;0.82;;
71046;SDS011;58703;48.978;8.982;2023-04-24T10:20:54;1.48;;;1.33;;
71046;SDS011;58703;48.978;8.982;2023-04-24T10:23:21;2.00;;;1.40;;
71046;SDS011;58703;48.978;8.982;2023-04-24T10:25:49;1.70;;;1.37;;
71046;SDS011;58703;48.978;8.982;2023-04-24T10:28:17;2.80;;;1.48;;
71046;SDS011;58703;48.978;8.982;2023-04-24T10:30:44;2.10;;;1.45;;
71046;SDS011;58703;48.978;8.982;2023-04-24T10:33:12;1.88;;;1.20;;
71046;SDS011;58703;48.978;8.982;2023-04-24T10:35:44;1.40;;;1.05;;
71046;SDS011;58703;48.978;8.982;2023-04-24T10:38:18;1.67;;;1.17;;
71046;SDS011;58703;48.978;8.982;2023-04-24T10:40:51;1.85;;;1.20;;
71046;SDS011;58703;48.978;8.982;2023-04-24T10:43:18;1.42;;;1.33;;
71046;SDS011;58703;48.978;8.982;2023-04-24T10:46:01;1.95;;;1.10;;
71046;SDS011;58703;48.978;8.982;2023-04-24T10:48:30;1.52;;;1.42;;
71046;SDS011;58703;48.978;8.982;2023-04-24T10:50:57;2.80;;;1.23;;
71046;SDS011;58703;48.978;8.982;2023-04-24T10:53:25;1.00;;;1.00;;
71046;SDS011;58703;48.978;8.982;2023-04-24T10:56:03;3.30;;;1.30;;
71046;SDS011;58703;48.978;8.982;2023-04-24T11:01:06;1.35;;;1.30;;
71046;SDS011;58703;48.978;8.982;2023-04-24T11:03:33;2.57;;;1.63;;
71046;SDS011;58703;48.978;8.982;2023-04-24T11:06:06;1.15;;;1.02;;
71046;SDS011;58703;48.978;8.982;2023-04-24T11:08:44;1.30;;;1.20;;
71046;SDS011;58703;48.978;8.982;2023-04-24T11:11:14;2.25;;;1.60;;
71046;SDS011;58703;48.978;8.982;2023-04-24T11:16:27;1.40;;;1.30;;
71046;SDS011;58703;48.978;8.982;2023-04-24T11:19:33;4.40;;;1.27;;
71046;SDS011;58703;48.978;8.982;2023-04-24T11:22:03;1.42;;;0.98;;
71046;SDS011;58703;48.978;8.982;2023-04-24T11:24:49;1.13;;;1.10;;
71046;SDS011;58703;48.978;8.982;2023-04-24T11:27:18;1.20;;;1.10;;
71046;SDS011;58703;48.978;8.982;2023-04-24T11:34:52;3.10;;;1.30;;
71046;SDS011;58703;48.978;8.982;2023-04-24T11:37:22;1.60;;;1.23;;
71046;SDS011;58703;48.978;8.982;2023-04-24T11:39:53;1.27;;;0.90;;
71046;SDS011;58703;48.978;8.982;2023-04-24T11:42:21;3.03;;;1.40;;
71046;SDS011;58703;48.978;8.982;2023-04-24T11:44:49;2.25;;;1.10;;
71046;SDS011;58703;48.978;8.982;2023-04-24T11:47:16;2.60;;;1.13;;
71046;SDS011;58703;48.978;8.982;2023-04-24T11:49:42;1.63;;;1.50;;
71046;SDS011;58703;48.978;8.982;2023-04-24T11:52:09;2.17;;;1.40;;
71046;SDS011;58703;48.978;8.982;2023-04-24T11:54:37;1.87;;;1.27;;
71046;SDS011;58703;48.978;8.982;2023-04-24T11:57:06;4.72;;;1.20;;
71046;SDS011;58703;48.978;8.982;2023-04-24T11:59:36;1.80;;;1.10;;
71046;SDS011;58703;48.978;8.982;2023-04-24T12:02:03;2.13;;;1.70;;
71046;SDS011;58703;48.978;8.982;2023-04-24T12:04:38;1.50;;;1.40;;
71046;SDS011;58703;48.978;8.982;2023-04-24T12:07:05;3.50;;;1.70;;
71046;SDS011;58703;48.978;8.982;2023-04-24T12:09:45;1.67;;;1.58;;
71046;SDS011;58703;48.978;8.982;2023-04-24T12:12:26;2.97;;;1.83;;
71046;SDS011;58703;48.978;8.982;2023-04-24T12:14:54;2.67;;;1.23;;
71046;SDS011;58703;48.978;8.982;2023-04-24T12:17:33;2.35;;;1.70;;
71046;SDS011;58703;48.978;8.982;2023-04-24T12:20:03;3.83;;;2.25;;
71046;SDS011;58703;48.978;8.982;2023-04-24T12:25:17;5.47;;;4.10;;
71046;SDS011;58703;48.978;8.982;2023-04-24T12:27:45;3.90;;;3.03;;
71046;SDS011;58703;48.978;8.982;2023-04-24T12:30:13;3.58;;;2.20;;
71046;SDS011;58703;48.978;8.982;2023-04-24T12:32:41;2.80;;;2.55;;
71046;SDS011;58703;48.978;8.982;2023-04-24T12:35:08;2.42;;;2.10;;
71046;SDS011;58703;48.978;8.982;2023-04-24T12:37:35;3.45;;;3.15;;
71046;SDS011;58703;48.978;8.982;2023-04-24T12:40:08;3.33;;;2.60;;
71046;SDS011;58703;48.978;8.982;2023-04-24T12:42:42;5.53;;;3.15;;
71046;SDS011;58703;48.978;8.982;2023-04-24T12:45:10;4.93;;;2.90;;
71046;SDS011;58703;48.978;8.982;2023-04-24T12:47:39;4.15;;;2.65;;
71046;SDS011;58703;48.978;8.982;2023-04-24T12:50:08;3.42;;;2.42;;
71046;SDS011;58703;48.978;8.982;2023-04-24T12:52:35;2.70;;;2.07;;
71046;SDS011;58703;48.978;8.982;2023-04-24T12:55:03;5.18;;;2.80;;
71046;SDS011;58703;48.978;8.982;2023-04-24T12:57:30;4.07;;;2.33;;
71046;SDS011;58703;48.978;8.982;2023-04-24T12:59:57;2.42;;;2.20;;
71046;SDS011;58703;48.978;8.982;2023-04-24T13:02:26;3.63;;;2.15;;
71046;SDS011;58703;48.978;8.982;2023-04-24T13:04:52;3.03;;;2.60;;
71046;SDS011;58703;48.978;8.982;2023-04-24T13:07:20;3.33;;;2.55;;
71046;SDS011;58703;48.978;8.982;2023-04-24T13:09:47;3.95;;;1.92;;
71046;SDS011;58703;48.978;8.982;2023-04-24T13:12:14;3.65;;;2.03;;
71046;SDS011;58703;48.978;8.982;2023-04-24T13:14:40;3.90;;;2.57;;
71046;SDS011;58703;48.978;8.982;2023-04-24T13:17:07;2.45;;;2.25;;
71046;SDS011;58703;48.978;8.982;2023-04-24T13:19:38;3.20;;;1.92;;
71046;SDS011;58703;48.978;8.982;2023-04-24T13:22:05;2.13;;;1.80;;
71046;SDS011;58703;48.978;8.982;2023-04-24T13:24:31;3.92;;;1.90;;
71046;SDS011;58703;48.978;8.982;2023-04-24T13:26:58;4.97;;;1.83;;
71046;SDS011;58703;48.978;8.982;2023-04-24T13:29:25;2.17;;;1.98;;
71046;SDS011;58703;48.978;8.982;2023-04-24T13:31:53;2.43;;;2.23;;
71046;SDS011;58703;48.978;8.982;2023-04-24T13:34:20;3.88;;;2.00;;
71046;SDS011;58703;48.978;8.982;2023-04-24T13:36:46;2.75;;;2.20;;
71046;SDS011;58703;48.978;8.982;2023-04-24T13:39:12;3.78;;;2.50;;
71046;SDS011;58703;48.978;8.982;2023-04-24T13:41:38;2.00;;;1.90;;
71046;SDS011;58703;48.978;8.982;2023-04-24T13:44:05;3.15;;;1.95;;
71046;SDS011;58703;48.978;8.982;2023-04-24T13:46:31;2.85;;;2.05;;
71046;SDS011;58703;48.978;8.982;2023-04-24T13:48:58;2.67;;;1.70;;
71046;SDS011;58703;48.978;8.982;2023-04-24T13:51:26;1.60;;;1.38;;
71046;SDS011;58703;48.978;8.982;2023-04-24T13:53:54;1.23;;;1.13;;
71046;SDS011;58703;48.978;8.982;2023-04-24T13:56:20;3.10;;;1.40;;
71046;SDS011;58703;48.978;8.982;2023-04-24T13:58:47;1.95;;;1.42;;
71046;SDS011;58703;48.978;8.982;2023-04-24T14:01:14;3.05;;;1.83;;
71046;SDS011;58703;48.978;8.982;2023-04-24T14:03:42;2.05;;;1.85;;
71046;SDS011;58703;48.978;8.982;2023-04-24T14:06:10;4.27;;;2.20;;
71046;SDS011;58703;48.978;8.982;2023-04-24T14:08:36;4.47;;;2.35;;
71046;SDS011;58703;48.978;8.982;2023-04-24T14:11:02;3.30;;;2.43;;
71046;SDS011;58703;48.978;8.982;2023-04-24T14:13:28;3.88;;;2.65;;
71046;SDS011;58703;48.978;8.982;2023-04-24T14:15:54;2.40;;;1.73;;
71046;SDS011;58703;48.978;8.982;2023-04-24T14:18:19;3.33;;;1.83;;
71046;SDS011;58703;48.978;8.982;2023-04-24T14:20:47;2.85;;;2.20;;
71046;SDS011;58703;48.978;8.982;2023-04-24T14:23:12;2.45;;;2.22;;
71046;SDS011;58703;48.978;8.982;2023-04-24T14:25:38;2.33;;;2.00;;
71046;SDS011;58703;48.978;8.982;2023-04-24T14:28:05;2.40;;;2.13;;
71046;SDS011;58703;48.978;8.982;2023-04-24T14:30:32;4.07;;;1.77;;
71046;SDS011;58703;48.978;8.982;2023-04-24T14:32:59;1.90;;;1.70;;
71046;SDS011;58703;48.978;8.982;2023-04-24T14:35:25;2.25;;;2.05;;
71046;SDS011;58703;48.978;8.982;2023-04-24T14:37:52;1.85;;;1.52;;
71046;SDS011;58703;48.978;8.982;2023-04-24T14:40:19;2.88;;;2.05;;
71046;SDS011;58703;48.978;8.982;2023-04-24T14:42:46;1.60;;;1.30;;
71046;SDS011;58703;48.978;8.982;2023-04-24T14:45:12;3.60;;;1.33;;
71046;SDS011;58703;48.978;8.982;2023-04-24T14:47:39;2.28;;;2.00;;
71046;SDS011;58703;48.978;8.982;2023-04-24T14:50:08;4.35;;;1.38;;
71046;SDS011;58703;48.978;8.982;2023-04-24T14:52:37;1.40;;;1.17;;
71046;SDS011;58703;48.978;8.982;2023-04-24T14:55:04;2.60;;;1.30;;
71046;SDS011;58703;48.978;8.982;2023-04-24T14:57:33;2.60;;;2.28;;
71046;SDS011;58703;48.978;8.982;2023-04-24T15:00:05;1.67;;;1.52;;
71046;SDS011;58703;48.978;8.982;2023-04-24T15:02:36;1.55;;;1.30;;